Athelstane, Wisconsin
Current Conditions -  °F | °C
As of 6:54 AM on Saturday 20 Dec 2014 (Local Time) from KIMT Reporting Station
Overcast Overcast  
Wind Chill: 17°   Ceiling: 1900
Heat Index: 17°   Visibility: 10mi
Dew Point: 14°   Wind: 0mph
Humidity: 88%   Direction: NA
Pressure: 30.22"   Gusts: NA
Location:  45.42°N, 88.1°W
Report Text: KIMT 201254Z AUTO 00000KT 10SM OVC019 M08/M10 A3022 RMK AO2 SLP259 T10831100
Loading
Personal Weather Stations






























Interactive Weather Map New forecast layout! Learn more

10-Day Weather Forecast

Advertisements
Track Severe Weather on mobile